sensor_id;sensor_type;location;lat;lon;timestamp;pressure;altitude;pressure_sealevel;temperature;humidity
52719;BME280;38616;42.140;24.760;2023-06-24T00:02:05;99531.06;;;24.98;54.20
52719;BME280;38616;42.140;24.760;2023-06-24T00:04:31;99530.16;;;24.90;54.90
52719;BME280;38616;42.140;24.760;2023-06-24T00:06:56;99534.19;;;24.97;55.05
52719;BME280;38616;42.140;24.760;2023-06-24T00:09:28;99522.47;;;25.14;54.30
52719;BME280;38616;42.140;24.760;2023-06-24T00:11:55;99518.19;;;25.24;53.82
52719;BME280;38616;42.140;24.760;2023-06-24T00:14:21;99515.41;;;24.83;54.45
52719;BME280;38616;42.140;24.760;2023-06-24T00:16:49;99521.81;;;24.56;55.89
52719;BME280;38616;42.140;24.760;2023-06-24T00:19:21;99518.84;;;25.06;54.42
52719;BME280;38616;42.140;24.760;2023-06-24T00:21:48;99514.97;;;25.18;53.66
52719;BME280;38616;42.140;24.760;2023-06-24T00:24:17;99509.41;;;25.18;53.49
52719;BME280;38616;42.140;24.760;2023-06-24T00:26:43;99504.41;;;25.35;52.60
52719;BME280;38616;42.140;24.760;2023-06-24T00:29:08;99508.44;;;25.41;52.45
52719;BME280;38616;42.140;24.760;2023-06-24T00:31:33;99512.09;;;25.45;52.13
52719;BME280;38616;42.140;24.760;2023-06-24T00:33:59;99507.34;;;25.49;52.03
52719;BME280;38616;42.140;24.760;2023-06-24T00:36:24;99507.50;;;25.26;52.24
52719;BME280;38616;42.140;24.760;2023-06-24T00:38:51;99507.78;;;25.14;52.79
52719;BME280;38616;42.140;24.760;2023-06-24T00:41:17;99511.44;;;25.21;52.67
52719;BME280;38616;42.140;24.760;2023-06-24T00:43:44;99517.59;;;25.04;53.18
52719;BME280;38616;42.140;24.760;2023-06-24T00:46:10;99517.34;;;24.82;53.67
52719;BME280;38616;42.140;24.760;2023-06-24T00:48:35;99512.94;;;25.12;52.62
52719;BME280;38616;42.140;24.760;2023-06-24T00:51:01;99502.75;;;25.27;52.65
52719;BME280;38616;42.140;24.760;2023-06-24T00:53:26;99494.47;;;25.34;51.72
52719;BME280;38616;42.140;24.760;2023-06-24T00:55:53;99490.75;;;25.19;51.88
52719;BME280;38616;42.140;24.760;2023-06-24T00:58:21;99495.19;;;25.27;51.23
52719;BME280;38616;42.140;24.760;2023-06-24T01:00:47;99495.94;;;25.20;51.32
52719;BME280;38616;42.140;24.760;2023-06-24T01:03:22;99493.84;;;25.10;51.27
52719;BME280;38616;42.140;24.760;2023-06-24T01:05:47;99493.00;;;25.02;51.86
52719;BME280;38616;42.140;24.760;2023-06-24T01:08:13;99495.44;;;25.11;50.87
52719;BME280;38616;42.140;24.760;2023-06-24T01:10:43;99500.41;;;25.32;50.51
52719;BME280;38616;42.140;24.760;2023-06-24T01:13:09;99504.28;;;25.20;50.27
52719;BME280;38616;42.140;24.760;2023-06-24T01:15:35;99507.31;;;25.04;49.30
52719;BME280;38616;42.140;24.760;2023-06-24T01:18:11;99501.13;;;24.84;50.11
52719;BME280;38616;42.140;24.760;2023-06-24T01:32:03;99481.38;;;24.59;48.35
52719;BME280;38616;42.140;24.760;2023-06-24T01:37:25;99489.72;;;24.28;48.95
52719;BME280;38616;42.140;24.760;2023-06-24T01:40:02;99491.22;;;24.22;48.84
52719;BME280;38616;42.140;24.760;2023-06-24T01:42:37;99493.63;;;24.24;48.81
52719;BME280;38616;42.140;24.760;2023-06-24T01:45:05;99499.44;;;24.45;48.76
52719;BME280;38616;42.140;24.760;2023-06-24T01:47:31;99504.06;;;24.34;48.74
52719;BME280;38616;42.140;24.760;2023-06-24T01:49:58;99501.03;;;24.46;48.57
52719;BME280;38616;42.140;24.760;2023-06-24T01:52:27;99504.19;;;24.75;48.08
52719;BME280;38616;42.140;24.760;2023-06-24T01:54:55;99500.56;;;24.71;48.27
52719;BME280;38616;42.140;24.760;2023-06-24T01:57:22;99503.13;;;24.53;48.58
52719;BME280;38616;42.140;24.760;2023-06-24T01:59:48;99505.72;;;24.39;49.10
52719;BME280;38616;42.140;24.760;2023-06-24T02:02:17;99508.72;;;24.26;49.11
52719;BME280;38616;42.140;24.760;2023-06-24T02:04:45;99512.47;;;24.41;48.76
52719;BME280;38616;42.140;24.760;2023-06-24T02:07:11;99511.50;;;24.26;49.15
52719;BME280;38616;42.140;24.760;2023-06-24T02:09:38;99519.06;;;24.29;49.21
52719;BME280;38616;42.140;24.760;2023-06-24T02:12:05;99515.41;;;24.22;49.50
52719;BME280;38616;42.140;24.760;2023-06-24T02:14:33;99515.16;;;24.34;49.18
52719;BME280;38616;42.140;24.760;2023-06-24T02:17:01;99525.50;;;24.37;48.93
52719;BME280;38616;42.140;24.760;2023-06-24T02:19:27;99525.41;;;24.30;48.85
52719;BME280;38616;42.140;24.760;2023-06-24T02:21:56;99524.44;;;23.91;49.30
52719;BME280;38616;42.140;24.760;2023-06-24T02:24:22;99525.97;;;23.89;49.65
52719;BME280;38616;42.140;24.760;2023-06-24T02:26:49;99535.13;;;23.89;49.39
52719;BME280;38616;42.140;24.760;2023-06-24T02:29:16;99541.44;;;23.90;49.33
52719;BME280;38616;42.140;24.760;2023-06-24T02:31:43;99545.81;;;23.64;49.86
52719;BME280;38616;42.140;24.760;2023-06-24T02:34:08;99554.09;;;23.87;49.67
52719;BME280;38616;42.140;24.760;2023-06-24T02:36:34;99557.94;;;23.56;50.07
52719;BME280;38616;42.140;24.760;2023-06-24T02:38:59;99559.06;;;23.74;50.10
52719;BME280;38616;42.140;24.760;2023-06-24T02:41:25;99560.69;;;24.02;49.23
52719;BME280;38616;42.140;24.760;2023-06-24T02:43:50;99550.69;;;23.98;49.30
52719;BME280;38616;42.140;24.760;2023-06-24T02:46:17;99556.88;;;23.87;49.33
52719;BME280;38616;42.140;24.760;2023-06-24T02:48:44;99569.22;;;23.43;50.47
52719;BME280;38616;42.140;24.760;2023-06-24T02:51:13;99576.09;;;23.53;50.60
52719;BME280;38616;42.140;24.760;2023-06-24T02:53:39;99566.31;;;23.59;50.43
52719;BME280;38616;42.140;24.760;2023-06-24T02:56:06;99563.63;;;23.63;50.54
52719;BME280;38616;42.140;24.760;2023-06-24T02:58:33;99566.75;;;23.61;50.89
52719;BME280;38616;42.140;24.760;2023-06-24T03:01:00;99573.53;;;23.64;50.59
52719;BME280;38616;42.140;24.760;2023-06-24T03:03:28;99574.41;;;23.68;50.32
52719;BME280;38616;42.140;24.760;2023-06-24T03:05:54;99572.34;;;23.88;50.00
52719;BME280;38616;42.140;24.760;2023-06-24T03:08:22;99573.47;;;23.60;50.30
52719;BME280;38616;42.140;24.760;2023-06-24T03:10:49;99565.16;;;23.60;50.33
52719;BME280;38616;42.140;24.760;2023-06-24T03:13:14;99565.63;;;23.43;50.54
52719;BME280;38616;42.140;24.760;2023-06-24T03:15:39;99563.94;;;23.58;50.36
52719;BME280;38616;42.140;24.760;2023-06-24T03:18:05;99561.00;;;23.74;50.37
52719;BME280;38616;42.140;24.760;2023-06-24T03:20:30;99567.22;;;23.90;49.72
52719;BME280;38616;42.140;24.760;2023-06-24T03:23:04;99560.47;;;23.65;49.93
52719;BME280;38616;42.140;24.760;2023-06-24T03:25:30;99558.25;;;23.74;49.81
52719;BME280;38616;42.140;24.760;2023-06-24T03:27:55;99564.22;;;23.76;49.64
52719;BME280;38616;42.140;24.760;2023-06-24T03:30:21;99572.69;;;23.87;49.34
52719;BME280;38616;42.140;24.760;2023-06-24T03:32:46;99575.94;;;23.66;49.27
52719;BME280;38616;42.140;24.760;2023-06-24T03:35:12;99580.88;;;23.53;49.81
52719;BME280;38616;42.140;24.760;2023-06-24T03:37:37;99572.66;;;23.83;49.48
52719;BME280;38616;42.140;24.760;2023-06-24T03:40:03;99578.91;;;24.00;49.32
52719;BME280;38616;42.140;24.760;2023-06-24T03:42:29;99574.69;;;24.10;48.75
52719;BME280;38616;42.140;24.760;2023-06-24T03:44:54;99574.53;;;23.99;48.90
52719;BME280;38616;42.140;24.760;2023-06-24T03:47:20;99566.84;;;23.92;48.73
52719;BME280;38616;42.140;24.760;2023-06-24T03:49:45;99568.72;;;23.84;49.42
52719;BME280;38616;42.140;24.760;2023-06-24T03:52:11;99573.13;;;23.89;49.43
52719;BME280;38616;42.140;24.760;2023-06-24T03:54:36;99568.38;;;24.13;48.79
52719;BME280;38616;42.140;24.760;2023-06-24T03:57:02;99574.47;;;24.22;48.29
52719;BME280;38616;42.140;24.760;2023-06-24T03:59:27;99563.22;;;24.11;48.20
52719;BME280;38616;42.140;24.760;2023-06-24T04:01:52;99578.16;;;24.03;48.56
52719;BME280;38616;42.140;24.760;2023-06-24T04:04:18;99567.91;;;24.07;48.19
52719;BME280;38616;42.140;24.760;2023-06-24T04:06:43;99568.16;;;23.75;49.03
52719;BME280;38616;42.140;24.760;2023-06-24T04:09:09;99573.34;;;23.76;48.52
52719;BME280;38616;42.140;24.760;2023-06-24T04:11:35;99577.84;;;23.85;48.29
52719;BME280;38616;42.140;24.760;2023-06-24T04:14:00;99571.53;;;23.88;48.20
52719;BME280;38616;42.140;24.760;2023-06-24T04:16:27;99570.72;;;24.11;48.23
52719;BME280;38616;42.140;24.760;2023-06-24T04:18:52;99576.25;;;24.07;47.79
52719;BME280;38616;42.140;24.760;2023-06-24T04:21:18;99581.44;;;23.89;47.42
52719;BME280;38616;42.140;24.760;2023-06-24T04:23:43;99582.75;;;23.95;48.04
52719;BME280;38616;42.140;24.760;2023-06-24T04:26:09;99588.56;;;24.10;47.96
52719;BME280;38616;42.140;24.760;2023-06-24T04:28:35;99587.06;;;24.43;47.28
52719;BME280;38616;42.140;24.760;2023-06-24T04:31:00;99593.16;;;24.52;46.66
52719;BME280;38616;42.140;24.760;2023-06-24T04:33:25;99587.59;;;24.52;46.91
52719;BME280;38616;42.140;24.760;2023-06-24T04:35:51;99588.78;;;24.24;46.88
52719;BME280;38616;42.140;24.760;2023-06-24T04:38:18;99594.66;;;24.46;47.01
52719;BME280;38616;42.140;24.760;2023-06-24T04:40:44;99591.91;;;24.76;46.41
52719;BME280;38616;42.140;24.760;2023-06-24T04:43:10;99598.25;;;24.77;46.01
52719;BME280;38616;42.140;24.760;2023-06-24T04:45:35;99599.97;;;24.58;46.06
52719;BME280;38616;42.140;24.760;2023-06-24T04:48:01;99610.34;;;24.34;46.68
52719;BME280;38616;42.140;24.760;2023-06-24T04:50:26;99612.63;;;24.56;46.74
52719;BME280;38616;42.140;24.760;2023-06-24T04:52:57;99614.94;;;24.50;46.52
52719;BME280;38616;42.140;24.760;2023-06-24T04:55:23;99618.75;;;24.69;46.66
52719;BME280;38616;42.140;24.760;2023-06-24T04:57:48;99617.53;;;24.97;46.15
52719;BME280;38616;42.140;24.760;2023-06-24T05:00:14;99626.06;;;25.11;46.04
52719;BME280;38616;42.140;24.760;2023-06-24T05:02:39;99618.25;;;25.24;45.91
52719;BME280;38616;42.140;24.760;2023-06-24T05:05:05;99624.72;;;25.32;45.58
52719;BME280;38616;42.140;24.760;2023-06-24T05:07:30;99626.09;;;25.45;45.28
52719;BME280;38616;42.140;24.760;2023-06-24T05:09:56;99630.91;;;25.52;45.04
52719;BME280;38616;42.140;24.760;2023-06-24T05:12:24;99629.34;;;25.55;45.06
52719;BME280;38616;42.140;24.760;2023-06-24T05:14:50;99630.31;;;25.73;44.44
52719;BME280;38616;42.140;24.760;2023-06-24T05:17:18;99635.53;;;25.78;44.48
52719;BME280;38616;42.140;24.760;2023-06-24T05:19:43;99635.56;;;25.82;44.29
52719;BME280;38616;42.140;24.760;2023-06-24T05:22:09;99633.63;;;25.86;44.74
52719;BME280;38616;42.140;24.760;2023-06-24T05:24:34;99639.13;;;25.82;44.40
52719;BME280;38616;42.140;24.760;2023-06-24T05:27:04;99637.66;;;25.96;44.29
52719;BME280;38616;42.140;24.760;2023-06-24T05:29:30;99640.50;;;26.00;44.04
52719;BME280;38616;42.140;24.760;2023-06-24T05:31:56;99642.13;;;26.04;44.02
52719;BME280;38616;42.140;24.760;2023-06-24T05:34:21;99639.34;;;26.04;44.35
52719;BME280;38616;42.140;24.760;2023-06-24T05:36:46;99638.78;;;25.88;44.55
52719;BME280;38616;42.140;24.760;2023-06-24T05:39:13;99634.59;;;26.08;44.58
52719;BME280;38616;42.140;24.760;2023-06-24T05:41:39;99644.03;;;25.55;44.74
52719;BME280;38616;42.140;24.760;2023-06-24T05:44:08;99644.63;;;25.72;44.38
52719;BME280;38616;42.140;24.760;2023-06-24T05:46:35;99651.03;;;25.79;44.46
52719;BME280;38616;42.140;24.760;2023-06-24T05:49:00;99644.69;;;25.82;44.45
52719;BME280;38616;42.140;24.760;2023-06-24T05:51:30;99637.72;;;26.03;44.42
52719;BME280;38616;42.140;24.760;2023-06-24T05:53:55;99632.94;;;26.00;44.61
52719;BME280;38616;42.140;24.760;2023-06-24T05:56:21;99637.06;;;26.14;44.67
52719;BME280;38616;42.140;24.760;2023-06-24T05:58:47;99638.72;;;26.22;44.05
52719;BME280;38616;42.140;24.760;2023-06-24T06:01:13;99637.53;;;26.23;43.84
52719;BME280;38616;42.140;24.760;2023-06-24T06:03:39;99644.28;;;26.22;43.95
52719;BME280;38616;42.140;24.760;2023-06-24T06:06:04;99639.19;;;26.31;44.34
52719;BME280;38616;42.140;24.760;2023-06-24T06:08:30;99637.94;;;26.29;43.61
52719;BME280;38616;42.140;24.760;2023-06-24T06:10:56;99636.53;;;25.56;44.71
52719;BME280;38616;42.140;24.760;2023-06-24T06:13:21;99641.16;;;25.44;45.38
52719;BME280;38616;42.140;24.760;2023-06-24T06:15:47;99638.28;;;25.37;45.83
52719;BME280;38616;42.140;24.760;2023-06-24T06:18:12;99633.91;;;25.74;45.94
52719;BME280;38616;42.140;24.760;2023-06-24T06:20:38;99625.84;;;26.06;44.96
52719;BME280;38616;42.140;24.760;2023-06-24T06:23:03;99618.44;;;26.25;45.10
52719;BME280;38616;42.140;24.760;2023-06-24T06:25:32;99605.88;;;25.93;45.75
52719;BME280;38616;42.140;24.760;2023-06-24T06:27:57;99602.81;;;25.61;46.69
52719;BME280;38616;42.140;24.760;2023-06-24T06:30:23;99604.63;;;25.87;46.79
52719;BME280;38616;42.140;24.760;2023-06-24T06:32:51;99605.16;;;26.07;47.13
52719;BME280;38616;42.140;24.760;2023-06-24T06:35:16;99606.19;;;26.37;46.11
52719;BME280;38616;42.140;24.760;2023-06-24T06:37:42;99606.31;;;26.62;46.15
52719;BME280;38616;42.140;24.760;2023-06-24T06:40:08;99601.59;;;26.74;46.45
52719;BME280;38616;42.140;24.760;2023-06-24T06:42:33;99605.41;;;26.40;46.82
52719;BME280;38616;42.140;24.760;2023-06-24T06:44:59;99598.25;;;26.39;47.51
52719;BME280;38616;42.140;24.760;2023-06-24T06:47:24;99602.75;;;26.65;46.90
52719;BME280;38616;42.140;24.760;2023-06-24T06:49:49;99603.25;;;26.78;46.43
52719;BME280;38616;42.140;24.760;2023-06-24T06:52:15;99600.53;;;26.89;45.52
52719;BME280;38616;42.140;24.760;2023-06-24T06:54:41;99606.47;;;26.84;45.32
52719;BME280;38616;42.140;24.760;2023-06-24T06:57:06;99598.53;;;26.97;45.59
52719;BME280;38616;42.140;24.760;2023-06-24T06:59:32;99598.50;;;26.82;45.03
52719;BME280;38616;42.140;24.760;2023-06-24T07:01:58;99598.75;;;26.59;45.38
52719;BME280;38616;42.140;24.760;2023-06-24T07:04:24;99588.97;;;26.87;45.21
52719;BME280;38616;42.140;24.760;2023-06-24T07:06:50;99589.84;;;27.06;44.83
52719;BME280;38616;42.140;24.760;2023-06-24T07:09:15;99595.00;;;27.04;43.98
52719;BME280;38616;42.140;24.760;2023-06-24T07:11:41;99591.94;;;26.49;44.91
52719;BME280;38616;42.140;24.760;2023-06-24T07:14:07;99591.75;;;26.20;45.67
52719;BME280;38616;42.140;24.760;2023-06-24T07:16:33;99582.06;;;26.66;45.00
52719;BME280;38616;42.140;24.760;2023-06-24T07:18:58;99579.97;;;26.42;44.81
52719;BME280;38616;42.140;24.760;2023-06-24T07:21:24;99575.97;;;26.39;45.30
52719;BME280;38616;42.140;24.760;2023-06-24T07:23:49;99581.91;;;26.34;45.29
52719;BME280;38616;42.140;24.760;2023-06-24T07:26:14;99577.28;;;26.60;44.49
52719;BME280;38616;42.140;24.760;2023-06-24T07:28:40;99581.72;;;26.75;44.27
52719;BME280;38616;42.140;24.760;2023-06-24T07:31:05;99570.81;;;26.41;44.72
52719;BME280;38616;42.140;24.760;2023-06-24T07:33:30;99585.69;;;26.70;44.28
52719;BME280;38616;42.140;24.760;2023-06-24T07:35:56;99591.25;;;26.70;44.21
52719;BME280;38616;42.140;24.760;2023-06-24T07:38:22;99584.78;;;26.52;44.13
52719;BME280;38616;42.140;24.760;2023-06-24T07:40:48;99583.03;;;27.03;44.11
52719;BME280;38616;42.140;24.760;2023-06-24T07:43:13;99580.31;;;27.25;43.97
52719;BME280;38616;42.140;24.760;2023-06-24T07:45:39;99583.94;;;27.33;42.76
52719;BME280;38616;42.140;24.760;2023-06-24T07:48:04;99579.13;;;27.22;42.88
52719;BME280;38616;42.140;24.760;2023-06-24T07:50:30;99581.53;;;27.31;43.66
52719;BME280;38616;42.140;24.760;2023-06-24T07:52:56;99581.03;;;26.96;43.82
52719;BME280;38616;42.140;24.760;2023-06-24T07:55:22;99589.06;;;27.20;43.60
52719;BME280;38616;42.140;24.760;2023-06-24T07:57:48;99588.22;;;26.97;43.54
52719;BME280;38616;42.140;24.760;2023-06-24T08:00:14;99589.00;;;26.98;43.45
52719;BME280;38616;42.140;24.760;2023-06-24T08:02:41;99585.31;;;26.72;43.76
52719;BME280;38616;42.140;24.760;2023-06-24T08:05:09;99580.63;;;26.94;43.02
52719;BME280;38616;42.140;24.760;2023-06-24T08:07:35;99592.66;;;27.20;42.93
52719;BME280;38616;42.140;24.760;2023-06-24T08:10:01;99587.47;;;27.15;43.03
52719;BME280;38616;42.140;24.760;2023-06-24T08:12:26;99597.06;;;27.25;42.55
52719;BME280;38616;42.140;24.760;2023-06-24T08:14:51;99596.59;;;27.05;42.88
52719;BME280;38616;42.140;24.760;2023-06-24T08:17:17;99586.28;;;27.16;42.59
52719;BME280;38616;42.140;24.760;2023-06-24T08:19:42;99585.81;;;26.92;42.78
52719;BME280;38616;42.140;24.760;2023-06-24T08:22:08;99585.88;;;27.18;42.34
52719;BME280;38616;42.140;24.760;2023-06-24T08:24:33;99581.88;;;27.11;42.54
52719;BME280;38616;42.140;24.760;2023-06-24T08:26:59;99590.69;;;27.39;42.22
52719;BME280;38616;42.140;24.760;2023-06-24T08:29:24;99584.00;;;27.62;41.71
52719;BME280;38616;42.140;24.760;2023-06-24T08:31:49;99586.41;;;27.78;42.04
52719;BME280;38616;42.140;24.760;2023-06-24T08:34:15;99587.59;;;27.87;41.27
52719;BME280;38616;42.140;24.760;2023-06-24T08:36:40;99587.59;;;27.73;41.25
52719;BME280;38616;42.140;24.760;2023-06-24T08:39:07;99578.81;;;27.64;41.77
52719;BME280;38616;42.140;24.760;2023-06-24T08:41:32;99584.81;;;27.95;41.47
52719;BME280;38616;42.140;24.760;2023-06-24T08:43:58;99582.00;;;27.84;41.38
52719;BME280;38616;42.140;24.760;2023-06-24T08:46:24;99578.03;;;27.70;41.17
52719;BME280;38616;42.140;24.760;2023-06-24T08:48:55;99570.44;;;28.03;41.02
52719;BME280;38616;42.140;24.760;2023-06-24T08:51:23;99574.00;;;28.37;40.36
52719;BME280;38616;42.140;24.760;2023-06-24T08:53:52;99567.94;;;28.60;40.76
52719;BME280;38616;42.140;24.760;2023-06-24T08:56:19;99573.91;;;28.62;40.80
52719;BME280;38616;42.140;24.760;2023-06-24T08:58:47;99572.72;;;28.56;40.01
52719;BME280;38616;42.140;24.760;2023-06-24T09:01:12;99573.47;;;28.74;40.04
52719;BME280;38616;42.140;24.760;2023-06-24T09:03:38;99584.25;;;28.72;40.76
52719;BME280;38616;42.140;24.760;2023-06-24T09:06:03;99569.81;;;28.96;40.24
52719;BME280;38616;42.140;24.760;2023-06-24T09:08:29;99583.53;;;28.57;40.23
52719;BME280;38616;42.140;24.760;2023-06-24T09:10:57;99577.44;;;28.88;40.34
52719;BME280;38616;42.140;24.760;2023-06-24T09:13:37;99566.72;;;28.68;40.71
52719;BME280;38616;42.140;24.760;2023-06-24T09:16:13;99563.47;;;28.84;40.72
52719;BME280;38616;42.140;24.760;2023-06-24T09:18:39;99560.88;;;29.19;39.78
52719;BME280;38616;42.140;24.760;2023-06-24T09:21:04;99558.22;;;28.94;40.01
52719;BME280;38616;42.140;24.760;2023-06-24T09:23:35;99557.69;;;29.17;40.23
52719;BME280;38616;42.140;24.760;2023-06-24T09:26:00;99548.44;;;29.31;39.56
52719;BME280;38616;42.140;24.760;2023-06-24T09:28:27;99547.22;;;29.32;40.38
52719;BME280;38616;42.140;24.760;2023-06-24T09:31:09;99543.28;;;29.26;40.19
52719;BME280;38616;42.140;24.760;2023-06-24T09:33:35;99544.41;;;29.35;39.54
52719;BME280;38616;42.140;24.760;2023-06-24T09:36:03;99538.78;;;29.43;38.76
52719;BME280;38616;42.140;24.760;2023-06-24T09:38:37;99545.63;;;29.38;39.38
52719;BME280;38616;42.140;24.760;2023-06-24T09:41:04;99535.22;;;29.31;39.60
52719;BME280;38616;42.140;24.760;2023-06-24T09:43:30;99537.13;;;28.74;40.20
52719;BME280;38616;42.140;24.760;2023-06-24T09:45:57;99526.06;;;28.49;40.93
52719;BME280;38616;42.140;24.760;2023-06-24T09:48:24;99515.81;;;28.21;41.50
52719;BME280;38616;42.140;24.760;2023-06-24T09:50:49;99511.66;;;28.61;40.56
52719;BME280;38616;42.140;24.760;2023-06-24T09:53:15;99496.28;;;29.02;40.52
52719;BME280;38616;42.140;24.760;2023-06-24T09:55:42;99496.13;;;29.28;39.67
52719;BME280;38616;42.140;24.760;2023-06-24T09:58:09;99500.25;;;29.61;38.89
52719;BME280;38616;42.140;24.760;2023-06-24T10:00:36;99481.31;;;29.76;38.75
52719;BME280;38616;42.140;24.760;2023-06-24T10:03:02;99483.03;;;29.67;38.69
52719;BME280;38616;42.140;24.760;2023-06-24T10:05:30;99478.13;;;29.78;39.58
52719;BME280;38616;42.140;24.760;2023-06-24T10:07:56;99479.28;;;29.81;39.60
52719;BME280;38616;42.140;24.760;2023-06-24T10:10:21;99476.47;;;29.84;39.53
52719;BME280;38616;42.140;24.760;2023-06-24T10:12:46;99483.94;;;29.98;39.70
52719;BME280;38616;42.140;24.760;2023-06-24T10:15:12;99475.13;;;29.96;39.05
52719;BME280;38616;42.140;24.760;2023-06-24T10:17:37;99478.25;;;30.05;38.76
52719;BME280;38616;42.140;24.760;2023-06-24T10:20:04;99470.25;;;30.07;38.10
52719;BME280;38616;42.140;24.760;2023-06-24T10:22:31;99468.28;;;30.04;37.68
52719;BME280;38616;42.140;24.760;2023-06-24T10:25:00;99471.78;;;30.12;37.49
52719;BME280;38616;42.140;24.760;2023-06-24T10:27:25;99467.28;;;30.22;37.74
52719;BME280;38616;42.140;24.760;2023-06-24T10:29:53;99466.56;;;30.14;38.45
52719;BME280;38616;42.140;24.760;2023-06-24T10:32:21;99465.84;;;30.06;38.88
52719;BME280;38616;42.140;24.760;2023-06-24T10:34:48;99460.16;;;30.14;39.32
52719;BME280;38616;42.140;24.760;2023-06-24T10:39:56;99458.19;;;30.45;38.59
52719;BME280;38616;42.140;24.760;2023-06-24T10:42:26;99450.91;;;30.51;38.30
52719;BME280;38616;42.140;24.760;2023-06-24T10:44:52;99451.78;;;30.45;38.61
52719;BME280;38616;42.140;24.760;2023-06-24T10:47:18;99447.28;;;30.51;38.35
52719;BME280;38616;42.140;24.760;2023-06-24T10:49:44;99440.47;;;30.52;38.13
52719;BME280;38616;42.140;24.760;2023-06-24T10:52:10;99441.28;;;30.52;37.96
52719;BME280;38616;42.140;24.760;2023-06-24T10:54:37;99432.50;;;30.50;38.10
52719;BME280;38616;42.140;24.760;2023-06-24T10:57:03;99429.22;;;30.25;37.72
52719;BME280;38616;42.140;24.760;2023-06-24T10:59:34;99429.22;;;30.25;37.90
52719;BME280;38616;42.140;24.760;2023-06-24T11:01:59;99416.97;;;30.46;37.72
52719;BME280;38616;42.140;24.760;2023-06-24T11:04:25;99411.19;;;30.57;38.59
52719;BME280;38616;42.140;24.760;2023-06-24T11:07:01;99402.53;;;30.75;38.34
52719;BME280;38616;42.140;24.760;2023-06-24T11:09:27;99407.25;;;30.81;38.06
52719;BME280;38616;42.140;24.760;2023-06-24T11:11:52;99404.78;;;30.56;37.92
52719;BME280;38616;42.140;24.760;2023-06-24T11:14:21;99394.56;;;30.42;38.02
52719;BME280;38616;42.140;24.760;2023-06-24T11:16:46;99396.72;;;30.31;38.43
52719;BME280;38616;42.140;24.760;2023-06-24T11:19:12;99389.72;;;30.46;37.59
52719;BME280;38616;42.140;24.760;2023-06-24T11:21:38;99384.78;;;30.58;38.33
52719;BME280;38616;42.140;24.760;2023-06-24T11:24:03;99373.25;;;30.79;38.15
52719;BME280;38616;42.140;24.760;2023-06-24T11:26:29;99364.72;;;30.87;38.35
52719;BME280;38616;42.140;24.760;2023-06-24T11:28:55;99363.81;;;30.93;38.65
52719;BME280;38616;42.140;24.760;2023-06-24T11:31:25;99369.94;;;31.08;37.32
52719;BME280;38616;42.140;24.760;2023-06-24T11:33:51;99355.69;;;30.99;37.59
52719;BME280;38616;42.140;24.760;2023-06-24T11:36:20;99357.00;;;31.18;37.60
52719;BME280;38616;42.140;24.760;2023-06-24T11:38:46;99354.13;;;31.22;37.86
52719;BME280;38616;42.140;24.760;2023-06-24T11:41:13;99349.28;;;31.46;36.90
52719;BME280;38616;42.140;24.760;2023-06-24T11:43:46;99353.38;;;31.42;37.07
52719;BME280;38616;42.140;24.760;2023-06-24T11:46:24;99351.13;;;31.09;38.01
52719;BME280;38616;42.140;24.760;2023-06-24T11:48:50;99347.00;;;31.17;38.12
52719;BME280;38616;42.140;24.760;2023-06-24T11:51:16;99326.44;;;31.24;38.23
52719;BME280;38616;42.140;24.760;2023-06-24T11:53:45;99334.81;;;31.48;37.41
52719;BME280;38616;42.140;24.760;2023-06-24T11:56:13;99330.34;;;31.50;36.89
52719;BME280;38616;42.140;24.760;2023-06-24T11:58:39;99333.59;;;31.49;36.72
52719;BME280;38616;42.140;24.760;2023-06-24T12:01:07;99322.78;;;31.47;36.77
52719;BME280;38616;42.140;24.760;2023-06-24T12:03:33;99313.00;;;31.55;36.94
52719;BME280;38616;42.140;24.760;2023-06-24T12:05:59;99316.75;;;31.69;36.92
52719;BME280;38616;42.140;24.760;2023-06-24T12:08:25;99324.66;;;31.78;36.00
52719;BME280;38616;42.140;24.760;2023-06-24T12:10:51;99312.09;;;31.82;36.52
52719;BME280;38616;42.140;24.760;2023-06-24T12:13:17;99305.88;;;31.91;36.13
52719;BME280;38616;42.140;24.760;2023-06-24T12:15:42;99305.53;;;31.89;36.53
52719;BME280;38616;42.140;24.760;2023-06-24T12:18:08;99299.56;;;31.47;35.12
52719;BME280;38616;42.140;24.760;2023-06-24T12:20:33;99305.91;;;31.51;35.85
52719;BME280;38616;42.140;24.760;2023-06-24T12:23:01;99301.94;;;31.68;36.17
52719;BME280;38616;42.140;24.760;2023-06-24T12:25:28;99303.22;;;31.84;36.08
52719;BME280;38616;42.140;24.760;2023-06-24T12:27:54;99300.13;;;31.98;35.73
52719;BME280;38616;42.140;24.760;2023-06-24T12:30:19;99288.63;;;31.73;35.49
52719;BME280;38616;42.140;24.760;2023-06-24T12:32:46;99279.03;;;31.70;35.71
52719;BME280;38616;42.140;24.760;2023-06-24T12:35:12;99272.69;;;31.86;35.83
52719;BME280;38616;42.140;24.760;2023-06-24T12:37:37;99266.50;;;31.95;35.99
52719;BME280;38616;42.140;24.760;2023-06-24T12:40:03;99261.78;;;32.08;35.15
52719;BME280;38616;42.140;24.760;2023-06-24T12:42:29;99258.53;;;32.10;36.04
52719;BME280;38616;42.140;24.760;2023-06-24T12:44:57;99259.75;;;32.09;34.61
52719;BME280;38616;42.140;24.760;2023-06-24T12:47:22;99244.06;;;32.11;33.79
52719;BME280;38616;42.140;24.760;2023-06-24T12:49:49;99232.13;;;32.07;34.37
52719;BME280;38616;42.140;24.760;2023-06-24T12:52:15;99237.75;;;32.07;34.58
52719;BME280;38616;42.140;24.760;2023-06-24T12:54:40;99234.50;;;32.25;34.19
52719;BME280;38616;42.140;24.760;2023-06-24T12:57:06;99246.63;;;32.22;34.55
52719;BME280;38616;42.140;24.760;2023-06-24T12:59:34;99237.88;;;32.37;34.40
52719;BME280;38616;42.140;24.760;2023-06-24T13:02:00;99226.19;;;32.38;34.13
52719;BME280;38616;42.140;24.760;2023-06-24T13:04:25;99220.00;;;32.27;34.07